Terminal Aerodrome Forecast
Issued by NWS

Home | Current Version | Previous Version | Text Only | Print | Product List | Glossary On
Versions: 1 2 3 4 5 6 7 8 9 10 11 12 13 14 15 16 17 18 19 20 21
000
FTUS41 KOKX 020200 AAA
TAFSWF
TAF AMD
KSWF 020230Z 0203/0306 VRB02KT 2SM -SN OVC004
     FM020600 VRB03KT 4SM BR OVC008
     FM020900 28007KT P6SM SCT010 BKN020
     FM021200 30012G20KT P6SM SCT025 BKN050
     FM021400 30017G25KT P6SM FEW050 SCT250
     FM022200 30011KT P6SM SCT250
     FM030300 30008KT P6SM SCT250
      AMD NOT SKED=

USA.gov is the U.S. government's official web portal to all federal, state and local government web resources and services.